sensor_id;sensor_type;location;lat;lon;timestamp;P1;durP1;ratioP1;P2;durP2;ratioP2
40847;SDS011;26570;50.962;5.340;2023-06-24T00:02:11;7.57;;;6.87;;
40847;SDS011;26570;50.962;5.340;2023-06-24T00:05:15;8.10;;;6.73;;
40847;SDS011;26570;50.962;5.340;2023-06-24T00:08:32;6.53;;;5.82;;
40847;SDS011;26570;50.962;5.340;2023-06-24T00:11:35;6.40;;;5.85;;
40847;SDS011;26570;50.962;5.340;2023-06-24T00:14:22;5.97;;;5.40;;
40847;SDS011;26570;50.962;5.340;2023-06-24T00:17:24;7.47;;;6.77;;
40847;SDS011;26570;50.962;5.340;2023-06-24T00:20:15;10.23;;;7.00;;
40847;SDS011;26570;50.962;5.340;2023-06-24T00:23:05;9.30;;;7.50;;
40847;SDS011;26570;50.962;5.340;2023-06-24T00:26:00;9.97;;;6.90;;
40847;SDS011;26570;50.962;5.340;2023-06-24T00:29:20;7.50;;;6.73;;
40847;SDS011;26570;50.962;5.340;2023-06-24T00:32:35;7.83;;;7.00;;
40847;SDS011;26570;50.962;5.340;2023-06-24T00:35:25;8.60;;;7.73;;
40847;SDS011;26570;50.962;5.340;2023-06-24T00:38:12;7.97;;;6.53;;
40847;SDS011;26570;50.962;5.340;2023-06-24T00:41:33;8.43;;;7.63;;
40847;SDS011;26570;50.962;5.340;2023-06-24T00:44:59;9.67;;;7.10;;
40847;SDS011;26570;50.962;5.340;2023-06-24T00:48:29;9.50;;;7.90;;
40847;SDS011;26570;50.962;5.340;2023-06-24T00:51:26;11.07;;;8.67;;
40847;SDS011;26570;50.962;5.340;2023-06-24T00:54:14;9.07;;;8.17;;
40847;SDS011;26570;50.962;5.340;2023-06-24T00:57:06;9.20;;;7.67;;
40847;SDS011;26570;50.962;5.340;2023-06-24T01:00:03;9.53;;;8.67;;
40847;SDS011;26570;50.962;5.340;2023-06-24T01:03:29;9.67;;;8.70;;
40847;SDS011;26570;50.962;5.340;2023-06-24T01:06:46;8.83;;;8.10;;
40847;SDS011;26570;50.962;5.340;2023-06-24T01:10:05;10.20;;;9.30;;
40847;SDS011;26570;50.962;5.340;2023-06-24T01:13:06;12.03;;;11.00;;
40847;SDS011;26570;50.962;5.340;2023-06-24T01:15:58;12.07;;;10.23;;
40847;SDS011;26570;50.962;5.340;2023-06-24T01:33:45;15.07;;;13.23;;
40847;SDS011;26570;50.962;5.340;2023-06-24T01:41:25;13.00;;;11.67;;
40847;SDS011;26570;50.962;5.340;2023-06-24T01:44:27;20.53;;;13.10;;
40847;SDS011;26570;50.962;5.340;2023-06-24T01:48:00;16.33;;;13.07;;
40847;SDS011;26570;50.962;5.340;2023-06-24T01:51:17;15.88;;;13.13;;
40847;SDS011;26570;50.962;5.340;2023-06-24T01:54:53;15.50;;;13.00;;
40847;SDS011;26570;50.962;5.340;2023-06-24T01:58:28;18.93;;;12.90;;
40847;SDS011;26570;50.962;5.340;2023-06-24T02:02:12;17.43;;;12.33;;
40847;SDS011;26570;50.962;5.340;2023-06-24T02:05:31;17.10;;;13.50;;
40847;SDS011;26570;50.962;5.340;2023-06-24T02:08:57;15.73;;;12.70;;
40847;SDS011;26570;50.962;5.340;2023-06-24T02:12:22;12.70;;;11.50;;
40847;SDS011;26570;50.962;5.340;2023-06-24T02:16:10;13.47;;;11.23;;
40847;SDS011;26570;50.962;5.340;2023-06-24T02:19:38;13.93;;;11.67;;
40847;SDS011;26570;50.962;5.340;2023-06-24T02:23:21;12.97;;;11.57;;
40847;SDS011;26570;50.962;5.340;2023-06-24T02:26:18;14.87;;;13.27;;
40847;SDS011;26570;50.962;5.340;2023-06-24T02:29:37;17.73;;;13.43;;
40847;SDS011;26570;50.962;5.340;2023-06-24T02:39:55;16.27;;;12.90;;
40847;SDS011;26570;50.962;5.340;2023-06-24T02:43:08;18.60;;;13.90;;
40847;SDS011;26570;50.962;5.340;2023-06-24T02:46:23;19.97;;;15.27;;
40847;SDS011;26570;50.962;5.340;2023-06-24T02:49:57;17.00;;;12.65;;
40847;SDS011;26570;50.962;5.340;2023-06-24T02:52:48;15.60;;;13.00;;
40847;SDS011;26570;50.962;5.340;2023-06-24T02:56:14;17.63;;;13.77;;
40847;SDS011;26570;50.962;5.340;2023-06-24T02:59:35;26.23;;;16.43;;
40847;SDS011;26570;50.962;5.340;2023-06-24T03:02:53;19.47;;;14.83;;
40847;SDS011;26570;50.962;5.340;2023-06-24T03:05:53;17.03;;;15.23;;
40847;SDS011;26570;50.962;5.340;2023-06-24T03:09:41;19.43;;;14.10;;
40847;SDS011;26570;50.962;5.340;2023-06-24T03:12:46;19.23;;;14.07;;
40847;SDS011;26570;50.962;5.340;2023-06-24T03:16:23;18.53;;;13.00;;
40847;SDS011;26570;50.962;5.340;2023-06-24T03:19:06;18.83;;;14.67;;
40847;SDS011;26570;50.962;5.340;2023-06-24T03:22:33;15.38;;;13.38;;
40847;SDS011;26570;50.962;5.340;2023-06-24T03:25:43;22.27;;;14.53;;
40847;SDS011;26570;50.962;5.340;2023-06-24T03:29:15;14.57;;;10.80;;
40847;SDS011;26570;50.962;5.340;2023-06-24T03:32:44;14.47;;;7.60;;
40847;SDS011;26570;50.962;5.340;2023-06-24T03:36:02;6.17;;;4.80;;
40847;SDS011;26570;50.962;5.340;2023-06-24T03:39:38;6.67;;;5.70;;
40847;SDS011;26570;50.962;5.340;2023-06-24T03:43:29;11.60;;;9.23;;
40847;SDS011;26570;50.962;5.340;2023-06-24T03:46:30;12.30;;;11.00;;
40847;SDS011;26570;50.962;5.340;2023-06-24T03:54:10;27.47;;;18.77;;
40847;SDS011;26570;50.962;5.340;2023-06-24T03:57:35;27.53;;;18.30;;
40847;SDS011;26570;50.962;5.340;2023-06-24T04:01:08;30.90;;;18.67;;
40847;SDS011;26570;50.962;5.340;2023-06-24T04:04:20;21.87;;;15.57;;
40847;SDS011;26570;50.962;5.340;2023-06-24T04:07:46;20.47;;;13.70;;
40847;SDS011;26570;50.962;5.340;2023-06-24T04:11:22;26.67;;;16.73;;
40847;SDS011;26570;50.962;5.340;2023-06-24T04:14:38;28.00;;;17.57;;
40847;SDS011;26570;50.962;5.340;2023-06-24T04:17:50;25.27;;;20.00;;
40847;SDS011;26570;50.962;5.340;2023-06-24T04:20:59;31.93;;;20.60;;
40847;SDS011;26570;50.962;5.340;2023-06-24T04:24:18;27.00;;;16.90;;
40847;SDS011;26570;50.962;5.340;2023-06-24T04:27:16;28.13;;;16.30;;
40847;SDS011;26570;50.962;5.340;2023-06-24T04:30:08;20.33;;;13.90;;
40847;SDS011;26570;50.962;5.340;2023-06-24T04:33:43;18.67;;;15.10;;
40847;SDS011;26570;50.962;5.340;2023-06-24T04:37:34;22.27;;;15.57;;
40847;SDS011;26570;50.962;5.340;2023-06-24T04:40:41;18.98;;;13.68;;
40847;SDS011;26570;50.962;5.340;2023-06-24T04:43:39;24.80;;;17.07;;
40847;SDS011;26570;50.962;5.340;2023-06-24T04:46:39;29.27;;;17.80;;
40847;SDS011;26570;50.962;5.340;2023-06-24T04:49:49;23.13;;;17.90;;
40847;SDS011;26570;50.962;5.340;2023-06-24T04:52:52;26.90;;;17.57;;
40847;SDS011;26570;50.962;5.340;2023-06-24T04:56:10;24.40;;;16.27;;
40847;SDS011;26570;50.962;5.340;2023-06-24T04:59:35;24.87;;;15.00;;
40847;SDS011;26570;50.962;5.340;2023-06-24T05:02:51;22.27;;;12.83;;
40847;SDS011;26570;50.962;5.340;2023-06-24T05:05:41;14.87;;;11.40;;
40847;SDS011;26570;50.962;5.340;2023-06-24T05:08:51;17.13;;;10.90;;
40847;SDS011;26570;50.962;5.340;2023-06-24T05:11:58;15.13;;;10.03;;
40847;SDS011;26570;50.962;5.340;2023-06-24T05:14:55;13.43;;;8.63;;
40847;SDS011;26570;50.962;5.340;2023-06-24T05:17:55;11.43;;;8.20;;
40847;SDS011;26570;50.962;5.340;2023-06-24T05:21:25;12.90;;;8.30;;
40847;SDS011;26570;50.962;5.340;2023-06-24T05:24:32;9.23;;;6.90;;
40847;SDS011;26570;50.962;5.340;2023-06-24T05:27:39;11.10;;;6.60;;
40847;SDS011;26570;50.962;5.340;2023-06-24T05:31:14;9.43;;;5.63;;
40847;SDS011;26570;50.962;5.340;2023-06-24T05:34:31;9.35;;;6.40;;
40847;SDS011;26570;50.962;5.340;2023-06-24T05:37:29;8.07;;;4.60;;
40847;SDS011;26570;50.962;5.340;2023-06-24T05:40:54;5.67;;;3.87;;
40847;SDS011;26570;50.962;5.340;2023-06-24T05:44:30;7.73;;;4.83;;
40847;SDS011;26570;50.962;5.340;2023-06-24T05:48:02;10.27;;;4.60;;
40847;SDS011;26570;50.962;5.340;2023-06-24T05:50:59;6.43;;;4.00;;
40847;SDS011;26570;50.962;5.340;2023-06-24T05:54:22;4.17;;;3.40;;
40847;SDS011;26570;50.962;5.340;2023-06-24T05:58:06;4.10;;;3.33;;
40847;SDS011;26570;50.962;5.340;2023-06-24T06:00:56;4.33;;;2.60;;
40847;SDS011;26570;50.962;5.340;2023-06-24T06:03:46;3.27;;;2.90;;
40847;SDS011;26570;50.962;5.340;2023-06-24T06:06:44;5.70;;;2.63;;
40847;SDS011;26570;50.962;5.340;2023-06-24T06:10:06;4.72;;;2.25;;
40847;SDS011;26570;50.962;5.340;2023-06-24T06:13:29;4.07;;;1.48;;
40847;SDS011;26570;50.962;5.340;2023-06-24T06:16:38;4.05;;;1.65;;
40847;SDS011;26570;50.962;5.340;2023-06-24T06:19:25;8.02;;;1.27;;
40847;SDS011;26570;50.962;5.340;2023-06-24T06:22:23;3.13;;;1.10;;
40847;SDS011;26570;50.962;5.340;2023-06-24T06:25:13;2.63;;;1.10;;
40847;SDS011;26570;50.962;5.340;2023-06-24T06:28:01;3.20;;;1.38;;
40847;SDS011;26570;50.962;5.340;2023-06-24T06:30:51;2.28;;;0.93;;
40847;SDS011;26570;50.962;5.340;2023-06-24T06:33:49;1.92;;;0.98;;
40847;SDS011;26570;50.962;5.340;2023-06-24T06:36:42;2.75;;;1.00;;
40847;SDS011;26570;50.962;5.340;2023-06-24T06:39:34;1.85;;;0.88;;
40847;SDS011;26570;50.962;5.340;2023-06-24T06:42:30;3.72;;;0.93;;
40847;SDS011;26570;50.962;5.340;2023-06-24T06:45:18;2.60;;;0.90;;
40847;SDS011;26570;50.962;5.340;2023-06-24T06:48:05;2.30;;;0.80;;
40847;SDS011;26570;50.962;5.340;2023-06-24T06:51:51;2.95;;;1.20;;
40847;SDS011;26570;50.962;5.340;2023-06-24T07:02:05;2.65;;;0.80;;
40847;SDS011;26570;50.962;5.340;2023-06-24T07:14:18;1.40;;;0.60;;
40847;SDS011;26570;50.962;5.340;2023-06-24T07:17:47;1.40;;;0.63;;
40847;SDS011;26570;50.962;5.340;2023-06-24T07:20:44;1.48;;;0.60;;
40847;SDS011;26570;50.962;5.340;2023-06-24T07:24:51;1.95;;;0.60;;
40847;SDS011;26570;50.962;5.340;2023-06-24T07:28:57;3.08;;;1.27;;
40847;SDS011;26570;50.962;5.340;2023-06-24T07:35:47;1.90;;;0.70;;
40847;SDS011;26570;50.962;5.340;2023-06-24T07:47:22;1.85;;;0.50;;
40847;SDS011;26570;50.962;5.340;2023-06-24T07:50:21;2.55;;;0.50;;
40847;SDS011;26570;50.962;5.340;2023-06-24T07:54:04;1.10;;;0.40;;
40847;SDS011;26570;50.962;5.340;2023-06-24T07:57:27;1.08;;;0.43;;
40847;SDS011;26570;50.962;5.340;2023-06-24T08:00:50;1.70;;;0.43;;
40847;SDS011;26570;50.962;5.340;2023-06-24T08:04:10;1.10;;;0.40;;
40847;SDS011;26570;50.962;5.340;2023-06-24T08:07:40;2.67;;;0.38;;
40847;SDS011;26570;50.962;5.340;2023-06-24T08:11:12;1.88;;;0.73;;
40847;SDS011;26570;50.962;5.340;2023-06-24T08:15:17;0.95;;;0.40;;
40847;SDS011;26570;50.962;5.340;2023-06-24T08:18:22;1.23;;;0.40;;
40847;SDS011;26570;50.962;5.340;2023-06-24T08:21:27;1.80;;;0.60;;
40847;SDS011;26570;50.962;5.340;2023-06-24T08:25:05;1.48;;;0.40;;
40847;SDS011;26570;50.962;5.340;2023-06-24T08:28:24;2.60;;;0.60;;
40847;SDS011;26570;50.962;5.340;2023-06-24T08:32:15;2.70;;;0.50;;
40847;SDS011;26570;50.962;5.340;2023-06-24T08:36:05;1.10;;;0.40;;
40847;SDS011;26570;50.962;5.340;2023-06-24T08:39:30;1.75;;;0.45;;
40847;SDS011;26570;50.962;5.340;2023-06-24T08:42:52;1.02;;;0.40;;
40847;SDS011;26570;50.962;5.340;2023-06-24T08:46:16;1.58;;;0.30;;
40847;SDS011;26570;50.962;5.340;2023-06-24T08:49:48;0.95;;;0.30;;
40847;SDS011;26570;50.962;5.340;2023-06-24T08:53:12;2.58;;;0.35;;
40847;SDS011;26570;50.962;5.340;2023-06-24T08:56:32;0.75;;;0.30;;
40847;SDS011;26570;50.962;5.340;2023-06-24T09:00:12;0.85;;;0.30;;
40847;SDS011;26570;50.962;5.340;2023-06-24T09:03:29;1.80;;;0.30;;
40847;SDS011;26570;50.962;5.340;2023-06-24T09:06:48;1.88;;;0.40;;
40847;SDS011;26570;50.962;5.340;2023-06-24T09:10:13;4.28;;;1.45;;
40847;SDS011;26570;50.962;5.340;2023-06-24T09:14:19;3.42;;;0.52;;
40847;SDS011;26570;50.962;5.340;2023-06-24T09:25:37;1.65;;;0.32;;
40847;SDS011;26570;50.962;5.340;2023-06-24T09:29:26;3.88;;;0.40;;
40847;SDS011;26570;50.962;5.340;2023-06-24T09:33:17;1.48;;;0.30;;
40847;SDS011;26570;50.962;5.340;2023-06-24T09:36:24;0.82;;;0.40;;
40847;SDS011;26570;50.962;5.340;2023-06-24T09:39:21;2.40;;;0.52;;
40847;SDS011;26570;50.962;5.340;2023-06-24T09:46:30;2.00;;;0.50;;
40847;SDS011;26570;50.962;5.340;2023-06-24T09:50:10;1.05;;;0.40;;
40847;SDS011;26570;50.962;5.340;2023-06-24T09:53:33;2.17;;;0.43;;
40847;SDS011;26570;50.962;5.340;2023-06-24T09:56:48;1.33;;;0.40;;
40847;SDS011;26570;50.962;5.340;2023-06-24T09:59:37;1.27;;;0.47;;
40847;SDS011;26570;50.962;5.340;2023-06-24T10:02:29;5.78;;;0.40;;
40847;SDS011;26570;50.962;5.340;2023-06-24T10:05:41;1.45;;;0.40;;
40847;SDS011;26570;50.962;5.340;2023-06-24T10:08:55;0.65;;;0.40;;
40847;SDS011;26570;50.962;5.340;2023-06-24T10:11:41;1.05;;;0.40;;
40847;SDS011;26570;50.962;5.340;2023-06-24T10:14:49;1.38;;;0.40;;
40847;SDS011;26570;50.962;5.340;2023-06-24T10:21:25;1.10;;;0.40;;
40847;SDS011;26570;50.962;5.340;2023-06-24T10:24:30;1.48;;;0.50;;
40847;SDS011;26570;50.962;5.340;2023-06-24T10:27:39;1.77;;;0.40;;
40847;SDS011;26570;50.962;5.340;2023-06-24T10:30:29;1.77;;;0.40;;
40847;SDS011;26570;50.962;5.340;2023-06-24T10:33:39;0.98;;;0.47;;
40847;SDS011;26570;50.962;5.340;2023-06-24T10:36:33;1.42;;;0.40;;
40847;SDS011;26570;50.962;5.340;2023-06-24T10:46:16;1.75;;;0.47;;
40847;SDS011;26570;50.962;5.340;2023-06-24T10:49:04;2.05;;;0.55;;
40847;SDS011;26570;50.962;5.340;2023-06-24T10:51:50;2.20;;;0.40;;
40847;SDS011;26570;50.962;5.340;2023-06-24T10:54:36;1.15;;;0.50;;
40847;SDS011;26570;50.962;5.340;2023-06-24T10:57:24;1.35;;;0.40;;
40847;SDS011;26570;50.962;5.340;2023-06-24T11:00:11;1.30;;;0.40;;
40847;SDS011;26570;50.962;5.340;2023-06-24T11:03:07;0.93;;;0.40;;
40847;SDS011;26570;50.962;5.340;2023-06-24T11:05:55;1.45;;;0.40;;
40847;SDS011;26570;50.962;5.340;2023-06-24T11:08:44;0.90;;;0.40;;
40847;SDS011;26570;50.962;5.340;2023-06-24T11:11:29;0.88;;;0.40;;
40847;SDS011;26570;50.962;5.340;2023-06-24T11:14:15;1.77;;;0.30;;
40847;SDS011;26570;50.962;5.340;2023-06-24T11:17:01;1.10;;;0.40;;
40847;SDS011;26570;50.962;5.340;2023-06-24T11:19:48;1.02;;;0.40;;
40847;SDS011;26570;50.962;5.340;2023-06-24T11:22:33;0.80;;;0.30;;
40847;SDS011;26570;50.962;5.340;2023-06-24T11:25:19;1.13;;;0.30;;
40847;SDS011;26570;50.962;5.340;2023-06-24T11:28:13;1.25;;;0.30;;
40847;SDS011;26570;50.962;5.340;2023-06-24T11:31:06;0.70;;;0.30;;
40847;SDS011;26570;50.962;5.340;2023-06-24T11:33:52;1.10;;;0.30;;
40847;SDS011;26570;50.962;5.340;2023-06-24T11:36:37;0.80;;;0.30;;
40847;SDS011;26570;50.962;5.340;2023-06-24T11:39:27;0.90;;;0.30;;
40847;SDS011;26570;50.962;5.340;2023-06-24T11:42:13;0.60;;;0.30;;
40847;SDS011;26570;50.962;5.340;2023-06-24T11:45:02;1.02;;;0.30;;
40847;SDS011;26570;50.962;5.340;2023-06-24T11:50:56;1.98;;;0.40;;
40847;SDS011;26570;50.962;5.340;2023-06-24T11:53:42;1.80;;;0.30;;
40847;SDS011;26570;50.962;5.340;2023-06-24T11:56:41;0.90;;;0.30;;
40847;SDS011;26570;50.962;5.340;2023-06-24T11:59:27;1.13;;;0.30;;
40847;SDS011;26570;50.962;5.340;2023-06-24T12:02:13;1.42;;;0.32;;
40847;SDS011;26570;50.962;5.340;2023-06-24T12:05:01;1.42;;;0.28;;
40847;SDS011;26570;50.962;5.340;2023-06-24T12:07:47;0.80;;;0.38;;
40847;SDS011;26570;50.962;5.340;2023-06-24T12:10:33;1.05;;;0.40;;
40847;SDS011;26570;50.962;5.340;2023-06-24T12:13:19;2.28;;;0.30;;
40847;SDS011;26570;50.962;5.340;2023-06-24T12:16:04;0.82;;;0.38;;
40847;SDS011;26570;50.962;5.340;2023-06-24T12:18:49;0.90;;;0.50;;
40847;SDS011;26570;50.962;5.340;2023-06-24T12:21:35;0.90;;;0.30;;
40847;SDS011;26570;50.962;5.340;2023-06-24T12:24:20;0.90;;;0.38;;
40847;SDS011;26570;50.962;5.340;2023-06-24T12:27:06;0.95;;;0.35;;
40847;SDS011;26570;50.962;5.340;2023-06-24T12:29:51;3.15;;;0.40;;
40847;SDS011;26570;50.962;5.340;2023-06-24T12:32:36;0.70;;;0.30;;
40847;SDS011;26570;50.962;5.340;2023-06-24T12:35:22;2.25;;;0.30;;
40847;SDS011;26570;50.962;5.340;2023-06-24T12:38:10;2.17;;;0.30;;
40847;SDS011;26570;50.962;5.340;2023-06-24T12:40:56;0.50;;;0.30;;
40847;SDS011;26570;50.962;5.340;2023-06-24T12:43:42;1.63;;;0.40;;
40847;SDS011;26570;50.962;5.340;2023-06-24T12:46:27;0.65;;;0.38;;
40847;SDS011;26570;50.962;5.340;2023-06-24T12:49:13;0.88;;;0.40;;
40847;SDS011;26570;50.962;5.340;2023-06-24T12:51:58;0.63;;;0.30;;
40847;SDS011;26570;50.962;5.340;2023-06-24T12:54:43;0.70;;;0.30;;
40847;SDS011;26570;50.962;5.340;2023-06-24T12:57:28;5.25;;;0.30;;
40847;SDS011;26570;50.962;5.340;2023-06-24T13:00:14;1.00;;;0.28;;
40847;SDS011;26570;50.962;5.340;2023-06-24T13:03:05;1.75;;;0.38;;
40847;SDS011;26570;50.962;5.340;2023-06-24T13:05:51;0.77;;;0.30;;
40847;SDS011;26570;50.962;5.340;2023-06-24T13:08:37;1.02;;;0.30;;
40847;SDS011;26570;50.962;5.340;2023-06-24T13:11:22;0.90;;;0.30;;
40847;SDS011;26570;50.962;5.340;2023-06-24T13:14:08;0.60;;;0.20;;
40847;SDS011;26570;50.962;5.340;2023-06-24T13:16:54;1.77;;;0.30;;
40847;SDS011;26570;50.962;5.340;2023-06-24T13:19:39;1.10;;;0.20;;
40847;SDS011;26570;50.962;5.340;2023-06-24T13:22:25;0.40;;;0.20;;
40847;SDS011;26570;50.962;5.340;2023-06-24T13:25:10;0.50;;;0.20;;
40847;SDS011;26570;50.962;5.340;2023-06-24T13:27:56;1.15;;;0.28;;
40847;SDS011;26570;50.962;5.340;2023-06-24T13:30:42;5.28;;;0.30;;
40847;SDS011;26570;50.962;5.340;2023-06-24T13:33:27;0.60;;;0.20;;
40847;SDS011;26570;50.962;5.340;2023-06-24T13:36:34;1.02;;;0.22;;
40847;SDS011;26570;50.962;5.340;2023-06-24T13:39:19;0.60;;;0.20;;
40847;SDS011;26570;50.962;5.340;2023-06-24T13:42:30;0.43;;;0.20;;
40847;SDS011;26570;50.962;5.340;2023-06-24T13:45:15;0.77;;;0.30;;
40847;SDS011;26570;50.962;5.340;2023-06-24T13:48:01;1.40;;;0.30;;
40847;SDS011;26570;50.962;5.340;2023-06-24T13:50:47;0.70;;;0.30;;
40847;SDS011;26570;50.962;5.340;2023-06-24T13:53:32;0.50;;;0.30;;
40847;SDS011;26570;50.962;5.340;2023-06-24T13:56:18;0.50;;;0.20;;
40847;SDS011;26570;50.962;5.340;2023-06-24T13:59:04;0.85;;;0.28;;
40847;SDS011;26570;50.962;5.340;2023-06-24T14:01:51;0.70;;;0.30;;
40847;SDS011;26570;50.962;5.340;2023-06-24T14:04:44;0.90;;;0.30;;
40847;SDS011;26570;50.962;5.340;2023-06-24T14:07:30;2.35;;;0.50;;
40847;SDS011;26570;50.962;5.340;2023-06-24T14:10:17;0.77;;;0.30;;
40847;SDS011;26570;50.962;5.340;2023-06-24T14:13:02;0.98;;;0.30;;
40847;SDS011;26570;50.962;5.340;2023-06-24T14:15:49;1.40;;;0.30;;
40847;SDS011;26570;50.962;5.340;2023-06-24T14:22:03;0.80;;;0.30;;
40847;SDS011;26570;50.962;5.340;2023-06-24T14:24:49;1.25;;;0.30;;
40847;SDS011;26570;50.962;5.340;2023-06-24T14:27:56;0.80;;;0.30;;
40847;SDS011;26570;50.962;5.340;2023-06-24T14:30:42;1.50;;;0.28;;
40847;SDS011;26570;50.962;5.340;2023-06-24T14:33:30;2.55;;;0.60;;
40847;SDS011;26570;50.962;5.340;2023-06-24T14:36:15;0.90;;;0.30;;
40847;SDS011;26570;50.962;5.340;2023-06-24T14:39:00;0.40;;;0.20;;
40847;SDS011;26570;50.962;5.340;2023-06-24T14:42:08;1.58;;;0.20;;
40847;SDS011;26570;50.962;5.340;2023-06-24T14:44:52;0.70;;;0.20;;
40847;SDS011;26570;50.962;5.340;2023-06-24T14:47:38;1.27;;;0.30;;
40847;SDS011;26570;50.962;5.340;2023-06-24T14:57:37;1.60;;;0.30;;
40847;SDS011;26570;50.962;5.340;2023-06-24T15:00:23;0.60;;;0.20;;
40847;SDS011;26570;50.962;5.340;2023-06-24T15:03:08;2.00;;;0.30;;
40847;SDS011;26570;50.962;5.340;2023-06-24T15:05:53;0.93;;;0.35;;
40847;SDS011;26570;50.962;5.340;2023-06-24T15:08:39;0.65;;;0.30;;
40847;SDS011;26570;50.962;5.340;2023-06-24T15:11:24;0.60;;;0.30;;
40847;SDS011;26570;50.962;5.340;2023-06-24T15:14:09;0.88;;;0.30;;
40847;SDS011;26570;50.962;5.340;2023-06-24T15:16:55;0.88;;;0.30;;
40847;SDS011;26570;50.962;5.340;2023-06-24T15:19:42;0.45;;;0.30;;
40847;SDS011;26570;50.962;5.340;2023-06-24T15:22:31;0.50;;;0.20;;
40847;SDS011;26570;50.962;5.340;2023-06-24T15:25:15;0.63;;;0.30;;
40847;SDS011;26570;50.962;5.340;2023-06-24T15:28:00;1.08;;;0.28;;
40847;SDS011;26570;50.962;5.340;2023-06-24T15:30:45;0.85;;;0.30;;
40847;SDS011;26570;50.962;5.340;2023-06-24T15:33:30;1.05;;;0.30;;
40847;SDS011;26570;50.962;5.340;2023-06-24T15:36:15;0.75;;;0.30;;
40847;SDS011;26570;50.962;5.340;2023-06-24T15:39:00;0.75;;;0.30;;
40847;SDS011;26570;50.962;5.340;2023-06-24T15:41:48;1.13;;;0.30;;
40847;SDS011;26570;50.962;5.340;2023-06-24T15:44:37;0.87;;;0.40;;
40847;SDS011;26570;50.962;5.340;2023-06-24T15:47:25;0.60;;;0.30;;
40847;SDS011;26570;50.962;5.340;2023-06-24T15:50:11;0.88;;;0.30;;
40847;SDS011;26570;50.962;5.340;2023-06-24T15:52:56;0.77;;;0.30;;
40847;SDS011;26570;50.962;5.340;2023-06-24T15:55:41;0.75;;;0.30;;
40847;SDS011;26570;50.962;5.340;2023-06-24T15:58:26;0.90;;;0.40;;
40847;SDS011;26570;50.962;5.340;2023-06-24T16:01:11;0.80;;;0.30;;
40847;SDS011;26570;50.962;5.340;2023-06-24T16:03:56;0.80;;;0.30;;
40847;SDS011;26570;50.962;5.340;2023-06-24T16:06:41;1.58;;;0.30;;
40847;SDS011;26570;50.962;5.340;2023-06-24T16:09:26;1.50;;;0.30;;
40847;SDS011;26570;50.962;5.340;2023-06-24T16:12:12;1.73;;;0.30;;
40847;SDS011;26570;50.962;5.340;2023-06-24T16:14:58;1.10;;;0.32;;
40847;SDS011;26570;50.962;5.340;2023-06-24T16:17:43;0.80;;;0.30;;
40847;SDS011;26570;50.962;5.340;2023-06-24T16:20:28;1.20;;;0.35;;
40847;SDS011;26570;50.962;5.340;2023-06-24T16:23:13;0.95;;;0.30;;
40847;SDS011;26570;50.962;5.340;2023-06-24T16:25:58;1.00;;;0.30;;
40847;SDS011;26570;50.962;5.340;2023-06-24T16:28:44;0.63;;;0.30;;
40847;SDS011;26570;50.962;5.340;2023-06-24T16:31:30;3.17;;;0.30;;
40847;SDS011;26570;50.962;5.340;2023-06-24T16:34:14;0.98;;;0.38;;
40847;SDS011;26570;50.962;5.340;2023-06-24T16:36:59;0.82;;;0.40;;
40847;SDS011;26570;50.962;5.340;2023-06-24T16:39:44;1.00;;;0.35;;
40847;SDS011;26570;50.962;5.340;2023-06-24T16:42:29;0.75;;;0.30;;
40847;SDS011;26570;50.962;5.340;2023-06-24T16:45:14;1.40;;;0.30;;
40847;SDS011;26570;50.962;5.340;2023-06-24T16:47:59;1.05;;;0.32;;
40847;SDS011;26570;50.962;5.340;2023-06-24T16:50:45;0.70;;;0.30;;
40847;SDS011;26570;50.962;5.340;2023-06-24T16:53:30;2.65;;;0.30;;
40847;SDS011;26570;50.962;5.340;2023-06-24T16:56:15;2.15;;;0.40;;
40847;SDS011;26570;50.962;5.340;2023-06-24T16:59:00;1.15;;;0.30;;
40847;SDS011;26570;50.962;5.340;2023-06-24T17:01:45;0.68;;;0.30;;
40847;SDS011;26570;50.962;5.340;2023-06-24T17:04:30;0.70;;;0.30;;
40847;SDS011;26570;50.962;5.340;2023-06-24T17:07:15;0.70;;;0.38;;
40847;SDS011;26570;50.962;5.340;2023-06-24T17:10:00;1.02;;;0.40;;
40847;SDS011;26570;50.962;5.340;2023-06-24T17:12:46;0.95;;;0.30;;
40847;SDS011;26570;50.962;5.340;2023-06-24T17:15:32;0.80;;;0.40;;
40847;SDS011;26570;50.962;5.340;2023-06-24T17:18:17;0.70;;;0.30;;
40847;SDS011;26570;50.962;5.340;2023-06-24T17:21:02;0.60;;;0.30;;
40847;SDS011;26570;50.962;5.340;2023-06-24T17:23:46;2.30;;;0.32;;
40847;SDS011;26570;50.962;5.340;2023-06-24T17:26:31;4.10;;;0.30;;
40847;SDS011;26570;50.962;5.340;2023-06-24T17:29:17;0.63;;;0.30;;
40847;SDS011;26570;50.962;5.340;2023-06-24T17:32:02;1.25;;;0.40;;
40847;SDS011;26570;50.962;5.340;2023-06-24T17:34:49;1.35;;;0.40;;
40847;SDS011;26570;50.962;5.340;2023-06-24T17:37:34;1.75;;;0.40;;
40847;SDS011;26570;50.962;5.340;2023-06-24T17:40:19;0.77;;;0.40;;
40847;SDS011;26570;50.962;5.340;2023-06-24T17:43:04;1.00;;;0.35;;
40847;SDS011;26570;50.962;5.340;2023-06-24T17:45:49;0.82;;;0.40;;
40847;SDS011;26570;50.962;5.340;2023-06-24T17:48:34;2.60;;;0.40;;
40847;SDS011;26570;50.962;5.340;2023-06-24T17:51:19;1.23;;;0.40;;
40847;SDS011;26570;50.962;5.340;2023-06-24T17:54:03;0.63;;;0.30;;
40847;SDS011;26570;50.962;5.340;2023-06-24T17:56:48;1.35;;;0.38;;
40847;SDS011;26570;50.962;5.340;2023-06-24T17:59:33;1.90;;;0.40;;
40847;SDS011;26570;50.962;5.340;2023-06-24T18:02:18;2.28;;;0.32;;
40847;SDS011;26570;50.962;5.340;2023-06-24T18:05:03;2.95;;;0.38;;
40847;SDS011;26570;50.962;5.340;2023-06-24T18:07:48;0.80;;;0.40;;
40847;SDS011;26570;50.962;5.340;2023-06-24T18:10:34;1.00;;;0.30;;
40847;SDS011;26570;50.962;5.340;2023-06-24T18:13:20;1.17;;;0.40;;
40847;SDS011;26570;50.962;5.340;2023-06-24T18:16:04;0.70;;;0.30;;
40847;SDS011;26570;50.962;5.340;2023-06-24T18:18:50;0.68;;;0.30;;
40847;SDS011;26570;50.962;5.340;2023-06-24T18:21:35;4.13;;;0.40;;
40847;SDS011;26570;50.962;5.340;2023-06-24T18:24:19;2.42;;;0.32;;
40847;SDS011;26570;50.962;5.340;2023-06-24T18:27:05;1.50;;;0.35;;
40847;SDS011;26570;50.962;5.340;2023-06-24T18:29:50;0.95;;;0.35;;
40847;SDS011;26570;50.962;5.340;2023-06-24T18:32:34;1.10;;;0.32;;
40847;SDS011;26570;50.962;5.340;2023-06-24T18:35:19;0.95;;;0.30;;
40847;SDS011;26570;50.962;5.340;2023-06-24T18:38:04;1.30;;;0.40;;
40847;SDS011;26570;50.962;5.340;2023-06-24T18:40:50;1.75;;;0.30;;
40847;SDS011;26570;50.962;5.340;2023-06-24T18:43:35;0.88;;;0.40;;
40847;SDS011;26570;50.962;5.340;2023-06-24T18:46:20;0.63;;;0.30;;
40847;SDS011;26570;50.962;5.340;2023-06-24T18:49:07;1.00;;;0.30;;
40847;SDS011;26570;50.962;5.340;2023-06-24T18:51:52;0.80;;;0.40;;
40847;SDS011;26570;50.962;5.340;2023-06-24T18:54:37;1.15;;;0.30;;
40847;SDS011;26570;50.962;5.340;2023-06-24T18:57:23;0.60;;;0.30;;
40847;SDS011;26570;50.962;5.340;2023-06-24T19:00:08;1.67;;;0.40;;
40847;SDS011;26570;50.962;5.340;2023-06-24T19:02:53;1.52;;;0.40;;
40847;SDS011;26570;50.962;5.340;2023-06-24T19:05:39;0.75;;;0.35;;
40847;SDS011;26570;50.962;5.340;2023-06-24T19:08:23;0.70;;;0.30;;
40847;SDS011;26570;50.962;5.340;2023-06-24T19:11:09;1.05;;;0.40;;
40847;SDS011;26570;50.962;5.340;2023-06-24T19:13:54;3.47;;;0.60;;
40847;SDS011;26570;50.962;5.340;2023-06-24T19:16:39;3.53;;;0.50;;
40847;SDS011;26570;50.962;5.340;2023-06-24T19:19:24;3.38;;;0.75;;
40847;SDS011;26570;50.962;5.340;2023-06-24T19:22:09;1.20;;;0.60;;
40847;SDS011;26570;50.962;5.340;2023-06-24T19:24:54;1.13;;;0.50;;
40847;SDS011;26570;50.962;5.340;2023-06-24T19:27:39;0.90;;;0.50;;
40847;SDS011;26570;50.962;5.340;2023-06-24T19:30:27;2.10;;;0.40;;
40847;SDS011;26570;50.962;5.340;2023-06-24T19:33:12;0.80;;;0.40;;
40847;SDS011;26570;50.962;5.340;2023-06-24T19:35:58;1.83;;;0.38;;